• Join FlightAware (Why Join?)
  • Login
  • US Flag 
04:42AM EDT


 

Airport Tracker/Info


-or-


 

Live Flight TrackerFlight Track Log ✈ SWA378 ✈ 09-May-2013 ✈ KBWI - KALB

Flight Track Log - Related Links

Times and Time Zones

All times are in EDT time to prevent confusion due to time zone crossing. See the SWA378 flight status page for this flight to view local times or setup timezone preferences in your user account.

Time Position Orientation Groundspeed Altitude Reporting Facility
EDT Latitude Longitude Course Direction KTS MPH feet Rate Location/Type
10:18PM 39.1833 -76.7167 207° Southwest 170 196 2,000  Level Potomac TRACON
10:19PM 39.1333 -76.7500 207° Southwest 245 282 4,700 2,580 Climbing Potomac TRACON
10:20PM 39.1333 -76.6500 90° East 308 354 7,200 2,640 Climbing Potomac TRACON
10:22PM 39.1356 -76.4478 89° East 324 373 12,400 2,640 Climbing Washington Center
10:23PM 39.1425 -76.3089 86° East 356 410 14,900 2,760 Climbing Washington Center
10:24PM 39.1600 -76.1617 81° East 392 451 17,900 2,820 Climbing Washington Center
10:25PM 39.1794 -76.0092 81° East 420 483 20,700 2,460 Climbing Washington Center
10:26PM 39.2111 -75.8594 75° East 427 491 23,000 2,340 Climbing Washington Center
10:27PM 39.2967 -75.7472 45° Northeast 416 479 25,400 2,640 Climbing Washington Center
10:28PM 39.3844 -75.6344 45° Northeast 424 488 28,200 1,380 Climbing Washington Center
10:29PM 39.5200 -75.4592 45° Northeast 433 498 29,000 300 Climbing New York Center
10:30PM 39.6058 -75.3461 45° Northeast 433 498 29,000  Level New York Center
10:31PM 39.6981 -75.2228 46° Northeast 438 504 29,000  Level New York Center
10:32PM 39.7789 -75.1225 44° Northeast 438 504 29,000  Level New York Center
10:33PM 39.8683 -75.0117 44° Northeast 438 504 29,000  Level New York Center
10:34PM 39.9686 -74.8933 42° Northeast 438 504 29,000  Level New York Center
10:35PM 40.0511 -74.7950 42° Northeast 438 504 29,000  Level New York Center
10:36PM 40.1403 -74.6836 44° Northeast 438 504 29,000  Level New York Center
10:37PM 40.2294 -74.5717 44° Northeast 433 498 29,000  Level New York Center
10:38PM 40.3231 -74.4514 44° Northeast 433 498 29,000  Level New York Center
10:39PM 40.4119 -74.3364 45° Northeast 433 498 29,000  Level New York Center
10:40PM 40.5006 -74.2292 43° Northeast 433 498 29,000 -120 Level New York Center
10:41PM 40.5872 -74.1186 44° Northeast 433 498 28,800 -960 Descending New York Center
10:42PM 40.6733 -74.0108 43° Northeast 433 498 27,200 -1,440 Descending New York Center
10:45PM 40.8711 -73.7686 43° Northeast 414 476 24,000 -1,200 Descending Boston Center
10:46PM 40.9411 -73.6739 46° Northeast 398 458 23,200 -540 Descending Boston Center
10:47PM 41.0481 -73.6014 27° Northeast 382 440 23,000 -300 Descending Boston Center
10:48PM 41.1522 -73.6200 352° North 360 414 22,700 -660 Descending Boston Center
10:49PM 41.2603 -73.6331 355° North 370 426 21,700 -1,020 Descending Boston Center
10:50PM 41.3686 -73.6461 355° North 380 437 20,700 -1,020 Descending Boston Center
10:51PM 41.4769 -73.6564 356° North 386 444 19,700 -960 Descending Boston Center
10:52PM 41.5683 -73.6692 354° North 381 438 18,800 -1,020 Descending Boston Center
10:53PM 41.6828 -73.6853 354° North 375 432 17,700 -1,080 Descending Boston Center
10:54PM 41.7744 -73.6956 355° North 370 426 16,700 -1,260 Descending Boston Center
10:55PM 41.8847 -73.7089 355° North 370 426 15,200 -1,980 Descending Boston Center
10:55PM 41.9617 -73.7189 354° North 354 407 13,300 -2,340 Descending Boston Center
10:56PM 41.9722 -73.7189 360° North 358 412 12,900 -2,340 Descending Boston Center
10:56PM 42.0492 -73.7289 354° North 344 396 11,200 -1,800 Descending Boston Center
10:57PM 42.0658 -73.7292 359° North 343 395 11,100 -240 Descending Boston Center
10:57PM 42.1325 -73.7392 354° North 293 337 11,000 -120 Descending Boston Center
10:58PM 42.1553 -73.7394 359° North 307 353 11,000 -900 Level Boston Center
10:58PM 42.2011 -73.7489 351° North 233 268 10,100 -1,620 Descending Boston Center
10:59PM 42.2178 -73.7464 North 259 298 9,400 -1,920 Descending Boston Center
10:59PM 42.2781 -73.7561 353° North 270 311 8,200 -1,620 Descending Boston Center
11:00PM 42.3011 -73.7567 359° North 259 298 7,800 -1,440 Descending Boston Center
11:00PM 42.3508 -73.7661 352° North 269 310 6,800 -1,440 Descending Boston Center
11:01PM 42.3678 -73.7636 North 259 298 6,400 -1,500 Descending Boston Center
11:01PM 42.4217 -73.7733 352° North 260 299 5,300 -1,620 Descending Boston Center
11:02PM 42.4467 -73.7767 354° North 259 298 4,800 -1,620 Descending Boston Center
11:02PM 42.4989 -73.7833 355° North 259 298 3,700 -1,440 Descending Boston Center
11:03PM 42.5319 -73.7869 355° North 254 292 3,100 -1,320 Descending Boston Center
11:03PM 42.5717 -73.7933 353° North 257 296 2,400 -900 Descending Boston Center
11:04PM 42.6008 -73.7969 355° North 254 292 2,200 -420 Descending Boston Center
11:04PM 42.6319 -73.8003 355° North 212 244 2,000 -240 Descending Boston Center
11:05PM 42.6611 -73.8094 347° North 254 292 2,000 -540 Level Boston Center
11:05PM 42.6756 -73.8042 15° North 141 162 1,500 21,000 Descending Boston Center
11:06PM 42.7297 -73.8250 344° North 254 292 23,000 -720 Climbing Boston Center
11:07PM 42.7131 -73.8078 143° Southeast 132 152 800  Descending Boston Center
11:07PM 42.7961 -73.8406 344° North 254 292 23,000 15,300 Climbing Boston Center
11:08PM 42.8647 -73.8564 350° North 254 292 23,000  Level Boston Center
11:09PM 42.8772 -73.8594 350° North 254 292 23,000  Level Boston Center
11:10PM 42.8772 -73.8594 304° West 254 292 23,000  Level Boston Center